sensor_id;sensor_type;location;lat;lon;timestamp;temperature;humidity
10889;DHT22;5497;51.388;6.780;2023-03-14T00:01:44;11.20;99.90
10889;DHT22;5497;51.388;6.780;2023-03-14T00:04:12;11.20;99.90
10889;DHT22;5497;51.388;6.780;2023-03-14T00:06:39;11.30;99.90
10889;DHT22;5497;51.388;6.780;2023-03-14T00:09:05;11.30;99.90
10889;DHT22;5497;51.388;6.780;2023-03-14T00:11:32;11.40;99.90
10889;DHT22;5497;51.388;6.780;2023-03-14T00:13:59;11.50;99.90
10889;DHT22;5497;51.388;6.780;2023-03-14T00:16:26;11.50;99.90
10889;DHT22;5497;51.388;6.780;2023-03-14T00:18:52;11.50;99.90
10889;DHT22;5497;51.388;6.780;2023-03-14T00:21:20;11.50;99.90
10889;DHT22;5497;51.388;6.780;2023-03-14T00:23:47;11.50;99.90
10889;DHT22;5497;51.388;6.780;2023-03-14T00:26:17;11.50;99.90
10889;DHT22;5497;51.388;6.780;2023-03-14T00:28:44;11.50;99.90
10889;DHT22;5497;51.388;6.780;2023-03-14T00:31:11;11.60;99.90
10889;DHT22;5497;51.388;6.780;2023-03-14T00:33:40;11.60;99.90
10889;DHT22;5497;51.388;6.780;2023-03-14T00:36:07;11.70;99.90
10889;DHT22;5497;51.388;6.780;2023-03-14T00:38:37;11.60;99.90
10889;DHT22;5497;51.388;6.780;2023-03-14T00:41:05;11.50;99.90
10889;DHT22;5497;51.388;6.780;2023-03-14T00:43:32;11.50;99.90
10889;DHT22;5497;51.388;6.780;2023-03-14T00:45:58;11.40;99.90
10889;DHT22;5497;51.388;6.780;2023-03-14T00:48:26;11.30;99.90
10889;DHT22;5497;51.388;6.780;2023-03-14T00:50:53;11.10;99.90
10889;DHT22;5497;51.388;6.780;2023-03-14T00:53:19;11.10;99.90
10889;DHT22;5497;51.388;6.780;2023-03-14T00:55:47;11.00;99.90
10889;DHT22;5497;51.388;6.780;2023-03-14T00:58:15;10.80;99.90
10889;DHT22;5497;51.388;6.780;2023-03-14T01:00:43;10.80;99.90
10889;DHT22;5497;51.388;6.780;2023-03-14T01:03:10;10.80;99.90
10889;DHT22;5497;51.388;6.780;2023-03-14T01:05:37;10.70;99.90
10889;DHT22;5497;51.388;6.780;2023-03-14T01:08:04;10.70;99.90
10889;DHT22;5497;51.388;6.780;2023-03-14T01:10:33;10.60;99.90
10889;DHT22;5497;51.388;6.780;2023-03-14T01:13:01;10.60;99.90
10889;DHT22;5497;51.388;6.780;2023-03-14T01:15:28;10.50;99.90
10889;DHT22;5497;51.388;6.780;2023-03-14T01:17:55;10.50;99.90
10889;DHT22;5497;51.388;6.780;2023-03-14T01:20:22;11.60;99.90
10889;DHT22;5497;51.388;6.780;2023-03-14T01:22:49;10.50;99.90
10889;DHT22;5497;51.388;6.780;2023-03-14T01:25:16;10.50;99.90
10889;DHT22;5497;51.388;6.780;2023-03-14T01:27:43;10.50;99.90
10889;DHT22;5497;51.388;6.780;2023-03-14T01:30:12;10.50;99.90
10889;DHT22;5497;51.388;6.780;2023-03-14T01:32:39;10.50;99.90
10889;DHT22;5497;51.388;6.780;2023-03-14T01:35:06;10.50;99.90
10889;DHT22;5497;51.388;6.780;2023-03-14T01:37:33;10.50;99.90
10889;DHT22;5497;51.388;6.780;2023-03-14T01:40:01;10.40;99.90
10889;DHT22;5497;51.388;6.780;2023-03-14T01:42:29;10.40;99.90
10889;DHT22;5497;51.388;6.780;2023-03-14T01:44:56;10.40;99.90
10889;DHT22;5497;51.388;6.780;2023-03-14T01:47:25;10.30;99.90
10889;DHT22;5497;51.388;6.780;2023-03-14T01:49:53;10.30;99.90
10889;DHT22;5497;51.388;6.780;2023-03-14T01:52:20;10.30;99.90
10889;DHT22;5497;51.388;6.780;2023-03-14T01:54:49;10.20;99.90
10889;DHT22;5497;51.388;6.780;2023-03-14T01:57:19;10.30;99.90
10889;DHT22;5497;51.388;6.780;2023-03-14T01:59:48;10.30;99.90
10889;DHT22;5497;51.388;6.780;2023-03-14T02:02:16;9.90;99.90
10889;DHT22;5497;51.388;6.780;2023-03-14T02:04:44;10.30;99.90
10889;DHT22;5497;51.388;6.780;2023-03-14T02:10:43;10.30;99.90
10889;DHT22;5497;51.388;6.780;2023-03-14T02:13:11;10.30;99.90
10889;DHT22;5497;51.388;6.780;2023-03-14T02:15:46;10.30;99.90
10889;DHT22;5497;51.388;6.780;2023-03-14T02:18:31;10.30;99.90
10889;DHT22;5497;51.388;6.780;2023-03-14T02:21:06;10.30;99.90
10889;DHT22;5497;51.388;6.780;2023-03-14T02:23:36;10.30;99.90
10889;DHT22;5497;51.388;6.780;2023-03-14T02:26:10;10.40;99.90
10889;DHT22;5497;51.388;6.780;2023-03-14T02:28:40;10.40;99.90
10889;DHT22;5497;51.388;6.780;2023-03-14T02:31:08;10.40;99.90
10889;DHT22;5497;51.388;6.780;2023-03-14T02:33:35;10.40;99.90
10889;DHT22;5497;51.388;6.780;2023-03-14T02:36:04;10.40;99.90
10889;DHT22;5497;51.388;6.780;2023-03-14T02:38:33;10.40;99.90
10889;DHT22;5497;51.388;6.780;2023-03-14T02:41:04;10.40;99.90
10889;DHT22;5497;51.388;6.780;2023-03-14T02:43:35;10.40;99.90
10889;DHT22;5497;51.388;6.780;2023-03-14T02:46:08;10.50;99.90
10889;DHT22;5497;51.388;6.780;2023-03-14T02:48:37;10.50;99.90
10889;DHT22;5497;51.388;6.780;2023-03-14T02:51:05;10.50;99.90
10889;DHT22;5497;51.388;6.780;2023-03-14T02:53:32;10.50;99.90
10889;DHT22;5497;51.388;6.780;2023-03-14T02:56:05;10.40;99.90
10889;DHT22;5497;51.388;6.780;2023-03-14T02:58:33;10.40;99.90
10889;DHT22;5497;51.388;6.780;2023-03-14T03:01:10;10.40;99.90
10889;DHT22;5497;51.388;6.780;2023-03-14T03:03:37;10.40;99.90
10889;DHT22;5497;51.388;6.780;2023-03-14T03:06:04;10.50;99.90
10889;DHT22;5497;51.388;6.780;2023-03-14T03:08:31;10.40;99.90
10889;DHT22;5497;51.388;6.780;2023-03-14T03:10:59;10.40;99.90
10889;DHT22;5497;51.388;6.780;2023-03-14T03:13:28;10.50;99.90
10889;DHT22;5497;51.388;6.780;2023-03-14T03:15:56;10.50;99.90
10889;DHT22;5497;51.388;6.780;2023-03-14T03:18:24;10.40;99.90
10889;DHT22;5497;51.388;6.780;2023-03-14T03:20:51;10.50;99.90
10889;DHT22;5497;51.388;6.780;2023-03-14T03:23:17;10.40;99.90
10889;DHT22;5497;51.388;6.780;2023-03-14T03:25:47;10.50;99.90
10889;DHT22;5497;51.388;6.780;2023-03-14T03:28:14;10.50;99.90
10889;DHT22;5497;51.388;6.780;2023-03-14T03:30:41;10.50;99.90
10889;DHT22;5497;51.388;6.780;2023-03-14T03:33:09;10.50;99.90
10889;DHT22;5497;51.388;6.780;2023-03-14T03:35:42;10.50;99.90
10889;DHT22;5497;51.388;6.780;2023-03-14T03:38:10;10.50;99.90
10889;DHT22;5497;51.388;6.780;2023-03-14T03:40:37;10.50;99.90
10889;DHT22;5497;51.388;6.780;2023-03-14T03:43:04;10.50;99.90
10889;DHT22;5497;51.388;6.780;2023-03-14T03:45:35;10.40;99.90
10889;DHT22;5497;51.388;6.780;2023-03-14T03:48:02;10.30;99.90
10889;DHT22;5497;51.388;6.780;2023-03-14T03:50:29;10.30;99.90
10889;DHT22;5497;51.388;6.780;2023-03-14T03:52:57;10.20;99.90
10889;DHT22;5497;51.388;6.780;2023-03-14T03:55:24;10.20;99.90
10889;DHT22;5497;51.388;6.780;2023-03-14T03:57:51;10.10;99.90
10889;DHT22;5497;51.388;6.780;2023-03-14T04:00:18;10.10;99.90
10889;DHT22;5497;51.388;6.780;2023-03-14T04:02:46;10.10;99.90
10889;DHT22;5497;51.388;6.780;2023-03-14T04:05:16;10.10;99.90
10889;DHT22;5497;51.388;6.780;2023-03-14T04:07:49;10.10;99.90
10889;DHT22;5497;51.388;6.780;2023-03-14T04:10:23;10.10;99.90
10889;DHT22;5497;51.388;6.780;2023-03-14T04:13:02;10.10;99.90
10889;DHT22;5497;51.388;6.780;2023-03-14T04:15:31;10.10;99.90
10889;DHT22;5497;51.388;6.780;2023-03-14T04:18:02;10.10;99.90
10889;DHT22;5497;51.388;6.780;2023-03-14T04:20:30;10.00;99.90
10889;DHT22;5497;51.388;6.780;2023-03-14T04:22:57;9.90;99.90
10889;DHT22;5497;51.388;6.780;2023-03-14T04:25:26;9.90;99.90
10889;DHT22;5497;51.388;6.780;2023-03-14T04:27:56;9.80;99.90
10889;DHT22;5497;51.388;6.780;2023-03-14T04:30:27;9.80;99.90
10889;DHT22;5497;51.388;6.780;2023-03-14T04:33:08;9.70;99.90
10889;DHT22;5497;51.388;6.780;2023-03-14T04:35:41;9.70;99.90
10889;DHT22;5497;51.388;6.780;2023-03-14T04:38:11;9.60;99.90
10889;DHT22;5497;51.388;6.780;2023-03-14T04:40:40;9.60;99.90
10889;DHT22;5497;51.388;6.780;2023-03-14T04:43:08;9.50;99.90
10889;DHT22;5497;51.388;6.780;2023-03-14T04:45:40;9.50;99.90
10889;DHT22;5497;51.388;6.780;2023-03-14T04:48:08;9.50;99.90
10889;DHT22;5497;51.388;6.780;2023-03-14T04:50:35;9.40;99.90
10889;DHT22;5497;51.388;6.780;2023-03-14T04:53:02;9.40;99.90
10889;DHT22;5497;51.388;6.780;2023-03-14T04:55:30;9.40;99.90
10889;DHT22;5497;51.388;6.780;2023-03-14T04:57:59;9.30;99.90
10889;DHT22;5497;51.388;6.780;2023-03-14T05:00:26;9.30;99.90
10889;DHT22;5497;51.388;6.780;2023-03-14T05:03:23;9.20;99.90
10889;DHT22;5497;51.388;6.780;2023-03-14T05:06:09;9.20;99.90
10889;DHT22;5497;51.388;6.780;2023-03-14T05:08:55;9.20;99.90
10889;DHT22;5497;51.388;6.780;2023-03-14T05:12:00;9.20;99.90
10889;DHT22;5497;51.388;6.780;2023-03-14T05:14:38;9.10;99.90
10889;DHT22;5497;51.388;6.780;2023-03-14T05:17:16;9.10;99.90
10889;DHT22;5497;51.388;6.780;2023-03-14T05:20:03;9.10;99.90
10889;DHT22;5497;51.388;6.780;2023-03-14T05:22:49;9.10;99.90
10889;DHT22;5497;51.388;6.780;2023-03-14T05:25:37;9.10;99.90
10889;DHT22;5497;51.388;6.780;2023-03-14T05:28:18;9.10;99.90
10889;DHT22;5497;51.388;6.780;2023-03-14T05:31:07;9.10;99.90
10889;DHT22;5497;51.388;6.780;2023-03-14T05:33:46;9.10;99.90
10889;DHT22;5497;51.388;6.780;2023-03-14T05:36:34;9.10;99.90
10889;DHT22;5497;51.388;6.780;2023-03-14T05:39:20;9.10;99.90
10889;DHT22;5497;51.388;6.780;2023-03-14T05:41:59;10.40;99.90
10889;DHT22;5497;51.388;6.780;2023-03-14T05:44:51;9.10;99.90
10889;DHT22;5497;51.388;6.780;2023-03-14T05:47:42;9.10;99.90
10889;DHT22;5497;51.388;6.780;2023-03-14T05:50:35;9.10;99.90
10889;DHT22;5497;51.388;6.780;2023-03-14T05:53:13;9.10;99.90
10889;DHT22;5497;51.388;6.780;2023-03-14T05:56:12;9.20;99.90
10889;DHT22;5497;51.388;6.780;2023-03-14T05:58:57;9.20;99.90
10889;DHT22;5497;51.388;6.780;2023-03-14T06:01:37;9.20;99.90
10889;DHT22;5497;51.388;6.780;2023-03-14T06:04:14;9.20;99.90
10889;DHT22;5497;51.388;6.780;2023-03-14T06:06:44;9.20;99.90
10889;DHT22;5497;51.388;6.780;2023-03-14T06:09:12;9.30;99.90
10889;DHT22;5497;51.388;6.780;2023-03-14T06:14:17;9.30;99.90
10889;DHT22;5497;51.388;6.780;2023-03-14T06:16:47;9.40;99.90
10889;DHT22;5497;51.388;6.780;2023-03-14T06:19:18;9.50;99.90
10889;DHT22;5497;51.388;6.780;2023-03-14T06:21:45;9.50;99.90
10889;DHT22;5497;51.388;6.780;2023-03-14T06:24:12;9.60;99.90
10889;DHT22;5497;51.388;6.780;2023-03-14T06:26:44;9.60;99.90
10889;DHT22;5497;51.388;6.780;2023-03-14T06:29:11;9.70;99.90
10889;DHT22;5497;51.388;6.780;2023-03-14T06:31:40;9.70;99.90
10889;DHT22;5497;51.388;6.780;2023-03-14T06:34:08;9.80;99.90
10889;DHT22;5497;51.388;6.780;2023-03-14T06:36:36;9.90;99.90
10889;DHT22;5497;51.388;6.780;2023-03-14T06:39:03;10.00;99.90
10889;DHT22;5497;51.388;6.780;2023-03-14T06:41:33;10.10;99.90
10889;DHT22;5497;51.388;6.780;2023-03-14T06:44:00;10.60;99.90
10889;DHT22;5497;51.388;6.780;2023-03-14T06:46:27;11.50;99.90
10889;DHT22;5497;51.388;6.780;2023-03-14T06:48:55;10.30;99.90
10889;DHT22;5497;51.388;6.780;2023-03-14T06:51:22;10.40;99.90
10889;DHT22;5497;51.388;6.780;2023-03-14T06:53:51;10.40;99.90
10889;DHT22;5497;51.388;6.780;2023-03-14T06:56:21;10.40;99.90
10889;DHT22;5497;51.388;6.780;2023-03-14T06:58:48;10.50;99.90
10889;DHT22;5497;51.388;6.780;2023-03-14T07:01:21;10.60;99.90
10889;DHT22;5497;51.388;6.780;2023-03-14T07:03:50;10.60;99.90
10889;DHT22;5497;51.388;6.780;2023-03-14T07:06:17;10.60;99.90
10889;DHT22;5497;51.388;6.780;2023-03-14T07:08:45;10.70;99.90
10889;DHT22;5497;51.388;6.780;2023-03-14T07:13:56;11.00;99.90
10889;DHT22;5497;51.388;6.780;2023-03-14T07:16:23;11.00;99.90
10889;DHT22;5497;51.388;6.780;2023-03-14T07:18:51;11.10;99.90
10889;DHT22;5497;51.388;6.780;2023-03-14T07:21:18;11.10;99.90
10889;DHT22;5497;51.388;6.780;2023-03-14T07:23:45;11.20;99.90
10889;DHT22;5497;51.388;6.780;2023-03-14T07:26:13;11.30;99.90
10889;DHT22;5497;51.388;6.780;2023-03-14T07:28:45;11.50;99.90
10889;DHT22;5497;51.388;6.780;2023-03-14T07:31:17;11.60;99.90
10889;DHT22;5497;51.388;6.780;2023-03-14T07:33:45;11.50;99.90
10889;DHT22;5497;51.388;6.780;2023-03-14T07:36:12;11.50;99.90
10889;DHT22;5497;51.388;6.780;2023-03-14T07:38:43;11.50;99.90
10889;DHT22;5497;51.388;6.780;2023-03-14T07:41:29;11.50;99.90
10889;DHT22;5497;51.388;6.780;2023-03-14T07:44:15;11.50;99.90
10889;DHT22;5497;51.388;6.780;2023-03-14T07:46:43;11.40;99.90
10889;DHT22;5497;51.388;6.780;2023-03-14T07:49:10;11.40;99.90
10889;DHT22;5497;51.388;6.780;2023-03-14T07:51:36;11.40;99.90
10889;DHT22;5497;51.388;6.780;2023-03-14T07:54:03;11.30;99.90
10889;DHT22;5497;51.388;6.780;2023-03-14T07:56:30;11.30;99.90
10889;DHT22;5497;51.388;6.780;2023-03-14T07:58:57;11.30;99.90
10889;DHT22;5497;51.388;6.780;2023-03-14T08:01:24;11.30;99.90
10889;DHT22;5497;51.388;6.780;2023-03-14T08:03:53;11.30;99.90
10889;DHT22;5497;51.388;6.780;2023-03-14T08:06:20;11.30;99.90
10889;DHT22;5497;51.388;6.780;2023-03-14T08:08:46;11.30;99.90
10889;DHT22;5497;51.388;6.780;2023-03-14T08:11:13;11.30;99.90
10889;DHT22;5497;51.388;6.780;2023-03-14T08:13:40;11.40;99.90
10889;DHT22;5497;51.388;6.780;2023-03-14T08:16:08;11.40;99.90
10889;DHT22;5497;51.388;6.780;2023-03-14T08:18:35;11.50;99.90
10889;DHT22;5497;51.388;6.780;2023-03-14T08:21:03;11.80;99.90
10889;DHT22;5497;51.388;6.780;2023-03-14T08:23:30;11.90;99.90
10889;DHT22;5497;51.388;6.780;2023-03-14T08:25:57;12.10;99.90
10889;DHT22;5497;51.388;6.780;2023-03-14T08:28:24;12.40;99.90
10889;DHT22;5497;51.388;6.780;2023-03-14T08:30:56;12.70;99.90
10889;DHT22;5497;51.388;6.780;2023-03-14T08:33:23;12.70;99.90
10889;DHT22;5497;51.388;6.780;2023-03-14T08:35:51;12.80;99.90
10889;DHT22;5497;51.388;6.780;2023-03-14T08:38:20;12.70;99.90
10889;DHT22;5497;51.388;6.780;2023-03-14T08:40:47;12.50;99.90
10889;DHT22;5497;51.388;6.780;2023-03-14T08:43:14;12.40;99.90
10889;DHT22;5497;51.388;6.780;2023-03-14T08:45:41;12.20;99.90
10889;DHT22;5497;51.388;6.780;2023-03-14T08:48:08;12.00;99.90
10889;DHT22;5497;51.388;6.780;2023-03-14T08:50:35;11.80;99.90
10889;DHT22;5497;51.388;6.780;2023-03-14T08:53:02;11.70;99.90
10889;DHT22;5497;51.388;6.780;2023-03-14T08:55:30;11.60;99.90
10889;DHT22;5497;51.388;6.780;2023-03-14T08:57:57;11.60;99.90
10889;DHT22;5497;51.388;6.780;2023-03-14T09:00:24;11.50;99.90
10889;DHT22;5497;51.388;6.780;2023-03-14T09:02:51;11.40;99.90
10889;DHT22;5497;51.388;6.780;2023-03-14T09:05:18;11.30;99.90
10889;DHT22;5497;51.388;6.780;2023-03-14T09:07:45;11.30;99.90
10889;DHT22;5497;51.388;6.780;2023-03-14T09:10:12;11.30;99.90
10889;DHT22;5497;51.388;6.780;2023-03-14T09:12:40;11.50;99.90
10889;DHT22;5497;51.388;6.780;2023-03-14T09:15:08;11.50;99.90
10889;DHT22;5497;51.388;6.780;2023-03-14T09:17:35;11.30;99.90
10889;DHT22;5497;51.388;6.780;2023-03-14T09:20:02;11.00;99.90
10889;DHT22;5497;51.388;6.780;2023-03-14T09:22:32;10.60;99.90
10889;DHT22;5497;51.388;6.780;2023-03-14T09:25:00;10.40;99.90
10889;DHT22;5497;51.388;6.780;2023-03-14T09:27:27;10.30;99.90
10889;DHT22;5497;51.388;6.780;2023-03-14T09:29:55;10.10;99.90
10889;DHT22;5497;51.388;6.780;2023-03-14T09:32:22;10.00;99.90
10889;DHT22;5497;51.388;6.780;2023-03-14T09:34:49;10.00;99.90
10889;DHT22;5497;51.388;6.780;2023-03-14T09:37:16;9.90;99.90
10889;DHT22;5497;51.388;6.780;2023-03-14T09:39:43;9.90;99.90
10889;DHT22;5497;51.388;6.780;2023-03-14T09:42:14;9.40;99.90
10889;DHT22;5497;51.388;6.780;2023-03-14T09:44:49;9.90;99.90
10889;DHT22;5497;51.388;6.780;2023-03-14T09:47:19;9.80;99.90
10889;DHT22;5497;51.388;6.780;2023-03-14T09:49:46;9.80;99.90
10889;DHT22;5497;51.388;6.780;2023-03-14T09:52:15;9.60;99.90
10889;DHT22;5497;51.388;6.780;2023-03-14T09:54:49;9.70;99.90
10889;DHT22;5497;51.388;6.780;2023-03-14T09:57:18;9.60;99.90
10889;DHT22;5497;51.388;6.780;2023-03-14T09:59:46;9.60;99.90
10889;DHT22;5497;51.388;6.780;2023-03-14T10:02:18;9.60;99.90
10889;DHT22;5497;51.388;6.780;2023-03-14T10:04:47;9.70;99.90
10889;DHT22;5497;51.388;6.780;2023-03-14T10:07:16;9.70;99.90
10889;DHT22;5497;51.388;6.780;2023-03-14T10:09:47;9.70;99.90
10889;DHT22;5497;51.388;6.780;2023-03-14T10:12:14;9.70;99.90
10889;DHT22;5497;51.388;6.780;2023-03-14T10:14:47;9.70;99.90
10889;DHT22;5497;51.388;6.780;2023-03-14T10:17:15;9.70;99.90
10889;DHT22;5497;51.388;6.780;2023-03-14T10:19:53;9.70;99.90
10889;DHT22;5497;51.388;6.780;2023-03-14T10:22:21;9.60;99.90
10889;DHT22;5497;51.388;6.780;2023-03-14T10:24:53;9.50;99.90
10889;DHT22;5497;51.388;6.780;2023-03-14T10:27:23;9.40;99.90
10889;DHT22;5497;51.388;6.780;2023-03-14T10:29:56;9.30;99.90
10889;DHT22;5497;51.388;6.780;2023-03-14T10:32:29;9.20;99.90
10889;DHT22;5497;51.388;6.780;2023-03-14T10:35:19;9.10;99.90
10889;DHT22;5497;51.388;6.780;2023-03-14T10:37:55;9.00;99.90
10889;DHT22;5497;51.388;6.780;2023-03-14T10:40:27;8.90;99.90
10889;DHT22;5497;51.388;6.780;2023-03-14T10:42:55;8.80;99.90
10889;DHT22;5497;51.388;6.780;2023-03-14T10:45:31;8.90;99.90
10889;DHT22;5497;51.388;6.780;2023-03-14T10:47:59;8.80;99.90
10889;DHT22;5497;51.388;6.780;2023-03-14T10:50:33;8.90;99.90
10889;DHT22;5497;51.388;6.780;2023-03-14T10:53:02;8.80;99.90
10889;DHT22;5497;51.388;6.780;2023-03-14T10:55:40;8.70;99.90
10889;DHT22;5497;51.388;6.780;2023-03-14T10:58:24;8.60;99.90
10889;DHT22;5497;51.388;6.780;2023-03-14T11:01:02;8.40;99.90
10889;DHT22;5497;51.388;6.780;2023-03-14T11:03:33;8.50;99.90
10889;DHT22;5497;51.388;6.780;2023-03-14T11:06:06;8.10;99.90
10889;DHT22;5497;51.388;6.780;2023-03-14T11:08:41;8.90;99.90
10889;DHT22;5497;51.388;6.780;2023-03-14T11:11:16;9.70;99.90
10889;DHT22;5497;51.388;6.780;2023-03-14T11:13:52;9.70;99.90
10889;DHT22;5497;51.388;6.780;2023-03-14T11:16:26;10.10;99.90
10889;DHT22;5497;51.388;6.780;2023-03-14T11:19:03;10.50;99.90
10889;DHT22;5497;51.388;6.780;2023-03-14T11:21:40;11.10;99.90
10889;DHT22;5497;51.388;6.780;2023-03-14T11:24:25;11.10;99.90
10889;DHT22;5497;51.388;6.780;2023-03-14T11:26:57;11.20;99.90
10889;DHT22;5497;51.388;6.780;2023-03-14T11:29:31;11.20;99.90
10889;DHT22;5497;51.388;6.780;2023-03-14T11:32:07;11.30;99.90
10889;DHT22;5497;51.388;6.780;2023-03-14T11:34:39;11.30;99.90
10889;DHT22;5497;51.388;6.780;2023-03-14T11:37:17;11.40;99.90
10889;DHT22;5497;51.388;6.780;2023-03-14T11:39:54;11.00;99.90
10889;DHT22;5497;51.388;6.780;2023-03-14T11:42:23;11.00;99.90
10889;DHT22;5497;51.388;6.780;2023-03-14T11:44:50;10.90;99.90
10889;DHT22;5497;51.388;6.780;2023-03-14T11:47:20;10.90;99.90
10889;DHT22;5497;51.388;6.780;2023-03-14T11:49:51;10.90;99.90
10889;DHT22;5497;51.388;6.780;2023-03-14T11:52:25;10.60;99.90
10889;DHT22;5497;51.388;6.780;2023-03-14T11:54:58;10.60;99.90
10889;DHT22;5497;51.388;6.780;2023-03-14T11:57:26;10.40;99.90
10889;DHT22;5497;51.388;6.780;2023-03-14T11:59:58;10.20;99.90
10889;DHT22;5497;51.388;6.780;2023-03-14T12:02:33;10.10;99.90
10889;DHT22;5497;51.388;6.780;2023-03-14T12:05:30;10.10;99.90
10889;DHT22;5497;51.388;6.780;2023-03-14T12:08:29;10.30;99.90
10889;DHT22;5497;51.388;6.780;2023-03-14T12:11:01;10.70;99.90
10889;DHT22;5497;51.388;6.780;2023-03-14T12:13:32;10.70;99.90
10889;DHT22;5497;51.388;6.780;2023-03-14T12:16:03;11.10;99.90
10889;DHT22;5497;51.388;6.780;2023-03-14T12:18:32;11.60;99.90
10889;DHT22;5497;51.388;6.780;2023-03-14T12:21:01;11.80;99.90
10889;DHT22;5497;51.388;6.780;2023-03-14T12:23:35;11.80;99.90
10889;DHT22;5497;51.388;6.780;2023-03-14T12:26:22;11.90;99.90
10889;DHT22;5497;51.388;6.780;2023-03-14T12:28:50;12.10;99.90
10889;DHT22;5497;51.388;6.780;2023-03-14T12:31:40;12.20;99.90
10889;DHT22;5497;51.388;6.780;2023-03-14T12:34:29;12.30;99.90
10889;DHT22;5497;51.388;6.780;2023-03-14T12:37:05;12.10;99.90
10889;DHT22;5497;51.388;6.780;2023-03-14T12:39:43;11.80;99.90
10889;DHT22;5497;51.388;6.780;2023-03-14T12:42:14;11.30;99.90
10889;DHT22;5497;51.388;6.780;2023-03-14T12:44:46;11.20;99.90
10889;DHT22;5497;51.388;6.780;2023-03-14T12:47:47;11.10;99.90
10889;DHT22;5497;51.388;6.780;2023-03-14T12:50:26;11.10;99.90
10889;DHT22;5497;51.388;6.780;2023-03-14T12:53:16;11.10;99.90
10889;DHT22;5497;51.388;6.780;2023-03-14T12:55:50;11.10;99.90
10889;DHT22;5497;51.388;6.780;2023-03-14T12:58:24;11.20;99.90
10889;DHT22;5497;51.388;6.780;2023-03-14T13:00:56;11.50;99.90
10889;DHT22;5497;51.388;6.780;2023-03-14T13:03:26;11.60;99.90
10889;DHT22;5497;51.388;6.780;2023-03-14T13:05:56;11.80;99.90
10889;DHT22;5497;51.388;6.780;2023-03-14T13:08:34;12.00;99.90
10889;DHT22;5497;51.388;6.780;2023-03-14T13:11:05;12.00;99.90
10889;DHT22;5497;51.388;6.780;2023-03-14T13:13:35;11.80;99.90
10889;DHT22;5497;51.388;6.780;2023-03-14T13:16:04;11.70;99.90
10889;DHT22;5497;51.388;6.780;2023-03-14T13:18:35;11.30;99.90
10889;DHT22;5497;51.388;6.780;2023-03-14T13:21:06;10.80;99.90
10889;DHT22;5497;51.388;6.780;2023-03-14T13:23:37;10.50;99.90
10889;DHT22;5497;51.388;6.780;2023-03-14T13:26:11;10.00;99.90
10889;DHT22;5497;51.388;6.780;2023-03-14T13:28:39;9.70;99.90
10889;DHT22;5497;51.388;6.780;2023-03-14T13:31:20;9.40;99.90
10889;DHT22;5497;51.388;6.780;2023-03-14T13:33:57;9.20;99.90
10889;DHT22;5497;51.388;6.780;2023-03-14T13:36:25;9.20;99.90
10889;DHT22;5497;51.388;6.780;2023-03-14T13:38:56;9.30;99.90
10889;DHT22;5497;51.388;6.780;2023-03-14T13:41:25;9.50;99.90
10889;DHT22;5497;51.388;6.780;2023-03-14T13:43:58;9.80;99.90
10889;DHT22;5497;51.388;6.780;2023-03-14T13:46:27;10.10;99.90
10889;DHT22;5497;51.388;6.780;2023-03-14T13:48:56;10.30;99.90
10889;DHT22;5497;51.388;6.780;2023-03-14T13:51:24;10.70;99.90
10889;DHT22;5497;51.388;6.780;2023-03-14T13:53:55;11.10;99.90
10889;DHT22;5497;51.388;6.780;2023-03-14T13:56:25;11.20;99.90
10889;DHT22;5497;51.388;6.780;2023-03-14T13:58:52;11.30;99.90
10889;DHT22;5497;51.388;6.780;2023-03-14T14:01:21;11.30;99.90
10889;DHT22;5497;51.388;6.780;2023-03-14T14:03:51;11.40;99.90
10889;DHT22;5497;51.388;6.780;2023-03-14T14:06:26;11.40;99.90
10889;DHT22;5497;51.388;6.780;2023-03-14T14:08:55;11.40;99.90
10889;DHT22;5497;51.388;6.780;2023-03-14T14:11:34;11.40;99.90
10889;DHT22;5497;51.388;6.780;2023-03-14T14:14:04;11.30;99.90
10889;DHT22;5497;51.388;6.780;2023-03-14T14:16:32;11.20;99.90
10889;DHT22;5497;51.388;6.780;2023-03-14T14:19:00;11.10;99.90
10889;DHT22;5497;51.388;6.780;2023-03-14T14:21:28;11.00;99.90
10889;DHT22;5497;51.388;6.780;2023-03-14T14:23:55;11.00;99.90
10889;DHT22;5497;51.388;6.780;2023-03-14T14:26:22;11.10;99.90
10889;DHT22;5497;51.388;6.780;2023-03-14T14:29:04;11.20;99.90
10889;DHT22;5497;51.388;6.780;2023-03-14T14:31:31;11.30;99.90
10889;DHT22;5497;51.388;6.780;2023-03-14T14:33:59;11.00;99.90
10889;DHT22;5497;51.388;6.780;2023-03-14T14:36:29;11.00;99.90
10889;DHT22;5497;51.388;6.780;2023-03-14T14:38:59;10.80;99.90
10889;DHT22;5497;51.388;6.780;2023-03-14T14:41:28;10.60;99.90
10889;DHT22;5497;51.388;6.780;2023-03-14T14:43:56;10.50;99.90
10889;DHT22;5497;51.388;6.780;2023-03-14T14:46:27;10.40;99.90
10889;DHT22;5497;51.388;6.780;2023-03-14T14:48:55;10.30;99.90
10889;DHT22;5497;51.388;6.780;2023-03-14T14:51:25;10.20;99.90
10889;DHT22;5497;51.388;6.780;2023-03-14T14:54:04;10.00;99.90
10889;DHT22;5497;51.388;6.780;2023-03-14T14:56:37;9.90;99.90
10889;DHT22;5497;51.388;6.780;2023-03-14T14:59:06;9.90;99.90
10889;DHT22;5497;51.388;6.780;2023-03-14T15:01:36;9.90;99.90
10889;DHT22;5497;51.388;6.780;2023-03-14T15:04:10;9.90;99.90
10889;DHT22;5497;51.388;6.780;2023-03-14T15:06:38;10.00;99.90
10889;DHT22;5497;51.388;6.780;2023-03-14T15:09:05;10.00;99.90
10889;DHT22;5497;51.388;6.780;2023-03-14T15:11:32;10.20;99.90
10889;DHT22;5497;51.388;6.780;2023-03-14T15:14:00;10.30;99.90
10889;DHT22;5497;51.388;6.780;2023-03-14T15:16:28;10.40;99.90
10889;DHT22;5497;51.388;6.780;2023-03-14T15:18:59;10.50;99.90
10889;DHT22;5497;51.388;6.780;2023-03-14T15:21:27;10.50;99.90
10889;DHT22;5497;51.388;6.780;2023-03-14T15:23:55;10.40;99.90
10889;DHT22;5497;51.388;6.780;2023-03-14T15:26:23;10.20;99.90
10889;DHT22;5497;51.388;6.780;2023-03-14T15:28:51;10.20;99.90
10889;DHT22;5497;51.388;6.780;2023-03-14T15:31:19;10.10;99.90
10889;DHT22;5497;51.388;6.780;2023-03-14T15:33:47;10.00;99.90
10889;DHT22;5497;51.388;6.780;2023-03-14T15:36:21;10.00;99.90
10889;DHT22;5497;51.388;6.780;2023-03-14T15:38:48;9.80;99.90
10889;DHT22;5497;51.388;6.780;2023-03-14T15:41:16;9.70;99.90
10889;DHT22;5497;51.388;6.780;2023-03-14T15:43:44;9.70;99.90
10889;DHT22;5497;51.388;6.780;2023-03-14T15:46:11;9.60;99.90
10889;DHT22;5497;51.388;6.780;2023-03-14T15:48:40;9.60;99.90
10889;DHT22;5497;51.388;6.780;2023-03-14T15:51:07;9.70;99.90
10889;DHT22;5497;51.388;6.780;2023-03-14T15:53:35;9.50;99.90
10889;DHT22;5497;51.388;6.780;2023-03-14T15:56:04;9.50;99.90
10889;DHT22;5497;51.388;6.780;2023-03-14T15:58:31;9.50;99.90
10889;DHT22;5497;51.388;6.780;2023-03-14T16:01:00;9.50;99.90
10889;DHT22;5497;51.388;6.780;2023-03-14T16:03:27;9.50;99.90
10889;DHT22;5497;51.388;6.780;2023-03-14T16:05:55;9.40;99.90
10889;DHT22;5497;51.388;6.780;2023-03-14T16:08:22;9.40;99.90
10889;DHT22;5497;51.388;6.780;2023-03-14T16:10:53;9.40;99.90
10889;DHT22;5497;51.388;6.780;2023-03-14T16:13:20;9.40;99.90
10889;DHT22;5497;51.388;6.780;2023-03-14T16:15:54;9.40;99.90
10889;DHT22;5497;51.388;6.780;2023-03-14T16:18:21;9.40;99.90
10889;DHT22;5497;51.388;6.780;2023-03-14T16:20:52;9.30;99.90
10889;DHT22;5497;51.388;6.780;2023-03-14T16:23:19;9.30;99.90